sensor_id;sensor_type;location;lat;lon;timestamp;P1;durP1;ratioP1;P2;durP2;ratioP2
48647;SDS011;34437;-33.956;151.076;2022-09-21T00:01:10;3.92;;;1.60;;
48647;SDS011;34437;-33.956;151.076;2022-09-21T00:03:33;5.15;;;1.38;;
48647;SDS011;34437;-33.956;151.076;2022-09-21T00:06:04;4.00;;;1.27;;
48647;SDS011;34437;-33.956;151.076;2022-09-21T00:08:28;4.72;;;1.27;;
48647;SDS011;34437;-33.956;151.076;2022-09-21T00:10:51;4.80;;;1.15;;
48647;SDS011;34437;-33.956;151.076;2022-09-21T00:13:13;3.58;;;1.38;;
48647;SDS011;34437;-33.956;151.076;2022-09-21T00:15:38;3.17;;;1.13;;
48647;SDS011;34437;-33.956;151.076;2022-09-21T00:20:24;4.90;;;1.60;;
48647;SDS011;34437;-33.956;151.076;2022-09-21T00:22:47;3.35;;;1.10;;
48647;SDS011;34437;-33.956;151.076;2022-09-21T00:25:10;3.25;;;0.90;;
48647;SDS011;34437;-33.956;151.076;2022-09-21T00:27:33;1.80;;;0.95;;
48647;SDS011;34437;-33.956;151.076;2022-09-21T00:29:57;1.27;;;0.73;;
48647;SDS011;34437;-33.956;151.076;2022-09-21T00:32:23;2.55;;;0.95;;
48647;SDS011;34437;-33.956;151.076;2022-09-21T00:34:51;3.35;;;1.10;;
48647;SDS011;34437;-33.956;151.076;2022-09-21T00:37:13;3.00;;;1.02;;
48647;SDS011;34437;-33.956;151.076;2022-09-21T00:39:36;2.70;;;1.17;;
48647;SDS011;34437;-33.956;151.076;2022-09-21T00:41:59;2.60;;;0.98;;
48647;SDS011;34437;-33.956;151.076;2022-09-21T00:44:31;4.10;;;1.13;;
48647;SDS011;34437;-33.956;151.076;2022-09-21T00:46:55;3.33;;;1.10;;
48647;SDS011;34437;-33.956;151.076;2022-09-21T00:49:22;2.15;;;0.70;;
48647;SDS011;34437;-33.956;151.076;2022-09-21T00:51:47;3.38;;;0.90;;
48647;SDS011;34437;-33.956;151.076;2022-09-21T00:54:13;1.98;;;0.63;;
48647;SDS011;34437;-33.956;151.076;2022-09-21T00:56:46;1.70;;;0.73;;
48647;SDS011;34437;-33.956;151.076;2022-09-21T00:59:09;0.85;;;0.70;;
48647;SDS011;34437;-33.956;151.076;2022-09-21T01:01:35;3.30;;;1.00;;
48647;SDS011;34437;-33.956;151.076;2022-09-21T01:03:58;2.87;;;0.67;;
48647;SDS011;34437;-33.956;151.076;2022-09-21T01:06:21;2.77;;;0.80;;
48647;SDS011;34437;-33.956;151.076;2022-09-21T01:08:45;1.92;;;1.00;;
48647;SDS011;34437;-33.956;151.076;2022-09-21T01:13:56;1.75;;;1.00;;
48647;SDS011;34437;-33.956;151.076;2022-09-21T01:32:27;3.03;;;1.15;;
48647;SDS011;34437;-33.956;151.076;2022-09-21T01:38:20;2.45;;;1.00;;
48647;SDS011;34437;-33.956;151.076;2022-09-21T01:40:55;3.92;;;0.90;;
48647;SDS011;34437;-33.956;151.076;2022-09-21T01:43:23;1.33;;;0.80;;
48647;SDS011;34437;-33.956;151.076;2022-09-21T01:45:53;1.40;;;0.68;;
48647;SDS011;34437;-33.956;151.076;2022-09-21T01:48:22;1.08;;;0.75;;
48647;SDS011;34437;-33.956;151.076;2022-09-21T01:50:47;1.60;;;0.90;;
48647;SDS011;34437;-33.956;151.076;2022-09-21T01:53:38;2.45;;;1.00;;
48647;SDS011;34437;-33.956;151.076;2022-09-21T01:56:12;1.83;;;0.95;;
48647;SDS011;34437;-33.956;151.076;2022-09-21T02:01:07;2.20;;;1.10;;
48647;SDS011;34437;-33.956;151.076;2022-09-21T02:03:36;2.08;;;1.25;;
48647;SDS011;34437;-33.956;151.076;2022-09-21T02:06:03;2.88;;;0.77;;
48647;SDS011;34437;-33.956;151.076;2022-09-21T02:10:52;3.92;;;0.77;;
48647;SDS011;34437;-33.956;151.076;2022-09-21T02:13:16;2.45;;;0.82;;
48647;SDS011;34437;-33.956;151.076;2022-09-21T02:15:55;3.38;;;1.20;;
48647;SDS011;34437;-33.956;151.076;2022-09-21T02:18:46;1.85;;;0.70;;
48647;SDS011;34437;-33.956;151.076;2022-09-21T02:24:26;3.08;;;1.42;;
48647;SDS011;34437;-33.956;151.076;2022-09-21T02:35:49;2.25;;;1.05;;
48647;SDS011;34437;-33.956;151.076;2022-09-21T02:43:51;5.47;;;1.38;;
48647;SDS011;34437;-33.956;151.076;2022-09-21T02:49:09;2.70;;;1.13;;
48647;SDS011;34437;-33.956;151.076;2022-09-21T02:51:42;2.85;;;1.60;;
48647;SDS011;34437;-33.956;151.076;2022-09-21T02:54:12;9.52;;;3.42;;
48647;SDS011;34437;-33.956;151.076;2022-09-21T02:56:38;6.30;;;3.65;;
48647;SDS011;34437;-33.956;151.076;2022-09-21T02:59:03;8.98;;;3.85;;
48647;SDS011;34437;-33.956;151.076;2022-09-21T03:01:27;11.30;;;5.07;;
48647;SDS011;34437;-33.956;151.076;2022-09-21T03:03:51;15.13;;;6.65;;
48647;SDS011;34437;-33.956;151.076;2022-09-21T03:06:13;15.93;;;6.88;;
48647;SDS011;34437;-33.956;151.076;2022-09-21T03:08:36;17.98;;;7.47;;
48647;SDS011;34437;-33.956;151.076;2022-09-21T03:10:59;18.63;;;8.50;;
48647;SDS011;34437;-33.956;151.076;2022-09-21T03:13:23;20.65;;;9.20;;
48647;SDS011;34437;-33.956;151.076;2022-09-21T03:15:45;19.13;;;9.00;;
48647;SDS011;34437;-33.956;151.076;2022-09-21T03:18:08;22.85;;;9.95;;
48647;SDS011;34437;-33.956;151.076;2022-09-21T03:20:31;20.55;;;9.80;;
48647;SDS011;34437;-33.956;151.076;2022-09-21T03:22:54;19.92;;;9.27;;
48647;SDS011;34437;-33.956;151.076;2022-09-21T03:25:17;21.02;;;9.93;;
48647;SDS011;34437;-33.956;151.076;2022-09-21T03:27:40;20.60;;;9.65;;
48647;SDS011;34437;-33.956;151.076;2022-09-21T03:30:02;22.30;;;9.68;;
48647;SDS011;34437;-33.956;151.076;2022-09-21T03:32:25;19.85;;;8.60;;
48647;SDS011;34437;-33.956;151.076;2022-09-21T03:34:48;17.38;;;8.57;;
48647;SDS011;34437;-33.956;151.076;2022-09-21T03:37:11;15.70;;;7.88;;
48647;SDS011;34437;-33.956;151.076;2022-09-21T03:39:33;18.42;;;8.77;;
48647;SDS011;34437;-33.956;151.076;2022-09-21T03:41:56;29.50;;;14.23;;
48647;SDS011;34437;-33.956;151.076;2022-09-21T03:44:19;30.93;;;17.23;;
48647;SDS011;34437;-33.956;151.076;2022-09-21T03:46:42;30.48;;;17.08;;
48647;SDS011;34437;-33.956;151.076;2022-09-21T03:49:05;31.35;;;16.48;;
48647;SDS011;34437;-33.956;151.076;2022-09-21T03:51:28;25.38;;;14.10;;
48647;SDS011;34437;-33.956;151.076;2022-09-21T03:53:51;26.63;;;13.15;;
48647;SDS011;34437;-33.956;151.076;2022-09-21T03:56:13;26.00;;;11.77;;
48647;SDS011;34437;-33.956;151.076;2022-09-21T03:58:36;18.27;;;10.63;;
48647;SDS011;34437;-33.956;151.076;2022-09-21T04:01:02;18.33;;;9.55;;
48647;SDS011;34437;-33.956;151.076;2022-09-21T04:03:24;20.52;;;10.15;;
48647;SDS011;34437;-33.956;151.076;2022-09-21T04:05:47;17.70;;;8.90;;
48647;SDS011;34437;-33.956;151.076;2022-09-21T04:08:10;17.30;;;8.02;;
48647;SDS011;34437;-33.956;151.076;2022-09-21T04:10:32;9.98;;;6.53;;
48647;SDS011;34437;-33.956;151.076;2022-09-21T04:13:01;11.73;;;6.10;;
48647;SDS011;34437;-33.956;151.076;2022-09-21T04:15:24;17.25;;;7.00;;
48647;SDS011;34437;-33.956;151.076;2022-09-21T04:17:49;9.75;;;5.85;;
48647;SDS011;34437;-33.956;151.076;2022-09-21T04:20:13;10.68;;;5.22;;
48647;SDS011;34437;-33.956;151.076;2022-09-21T04:22:35;14.15;;;5.45;;
48647;SDS011;34437;-33.956;151.076;2022-09-21T04:24:58;12.30;;;4.60;;
48647;SDS011;34437;-33.956;151.076;2022-09-21T04:27:21;10.50;;;4.55;;
48647;SDS011;34437;-33.956;151.076;2022-09-21T04:29:44;10.30;;;4.68;;
48647;SDS011;34437;-33.956;151.076;2022-09-21T04:32:07;8.10;;;4.20;;
48647;SDS011;34437;-33.956;151.076;2022-09-21T04:34:31;7.88;;;4.13;;
48647;SDS011;34437;-33.956;151.076;2022-09-21T04:36:54;6.70;;;3.70;;
48647;SDS011;34437;-33.956;151.076;2022-09-21T04:39:18;7.40;;;3.20;;
48647;SDS011;34437;-33.956;151.076;2022-09-21T04:41:41;9.63;;;3.95;;
48647;SDS011;34437;-33.956;151.076;2022-09-21T04:44:03;7.35;;;3.15;;
48647;SDS011;34437;-33.956;151.076;2022-09-21T04:46:26;5.32;;;3.33;;
48647;SDS011;34437;-33.956;151.076;2022-09-21T04:48:49;6.80;;;2.72;;
48647;SDS011;34437;-33.956;151.076;2022-09-21T04:51:12;5.93;;;2.97;;
48647;SDS011;34437;-33.956;151.076;2022-09-21T04:53:36;5.43;;;2.60;;
48647;SDS011;34437;-33.956;151.076;2022-09-21T04:56:00;5.20;;;2.63;;
48647;SDS011;34437;-33.956;151.076;2022-09-21T04:58:24;6.55;;;2.80;;
48647;SDS011;34437;-33.956;151.076;2022-09-21T05:00:48;7.05;;;3.13;;
48647;SDS011;34437;-33.956;151.076;2022-09-21T05:03:11;5.20;;;2.90;;
48647;SDS011;34437;-33.956;151.076;2022-09-21T05:05:34;4.60;;;2.42;;
48647;SDS011;34437;-33.956;151.076;2022-09-21T05:07:57;6.88;;;2.83;;
48647;SDS011;34437;-33.956;151.076;2022-09-21T05:10:20;5.25;;;2.58;;
48647;SDS011;34437;-33.956;151.076;2022-09-21T05:12:42;5.45;;;2.40;;
48647;SDS011;34437;-33.956;151.076;2022-09-21T05:15:05;5.07;;;2.38;;
48647;SDS011;34437;-33.956;151.076;2022-09-21T05:17:28;5.18;;;2.20;;
48647;SDS011;34437;-33.956;151.076;2022-09-21T05:19:51;2.88;;;1.60;;
48647;SDS011;34437;-33.956;151.076;2022-09-21T05:22:14;3.72;;;2.05;;
48647;SDS011;34437;-33.956;151.076;2022-09-21T05:24:37;4.13;;;2.05;;
48647;SDS011;34437;-33.956;151.076;2022-09-21T05:27:00;5.57;;;2.50;;
48647;SDS011;34437;-33.956;151.076;2022-09-21T05:29:22;4.43;;;2.33;;
48647;SDS011;34437;-33.956;151.076;2022-09-21T05:32:29;4.65;;;2.55;;
48647;SDS011;34437;-33.956;151.076;2022-09-21T05:37:35;4.45;;;2.10;;
48647;SDS011;34437;-33.956;151.076;2022-09-21T05:40:07;4.13;;;2.22;;
48647;SDS011;34437;-33.956;151.076;2022-09-21T05:42:31;3.92;;;1.95;;
48647;SDS011;34437;-33.956;151.076;2022-09-21T05:44:54;4.77;;;2.20;;
48647;SDS011;34437;-33.956;151.076;2022-09-21T05:47:25;3.70;;;1.90;;
48647;SDS011;34437;-33.956;151.076;2022-09-21T05:55:23;3.95;;;1.90;;
48647;SDS011;34437;-33.956;151.076;2022-09-21T06:03:24;4.07;;;1.92;;
48647;SDS011;34437;-33.956;151.076;2022-09-21T06:05:48;5.22;;;2.00;;
48647;SDS011;34437;-33.956;151.076;2022-09-21T06:08:11;3.45;;;1.58;;
48647;SDS011;34437;-33.956;151.076;2022-09-21T06:10:34;3.63;;;1.88;;
48647;SDS011;34437;-33.956;151.076;2022-09-21T06:12:57;3.78;;;2.28;;
48647;SDS011;34437;-33.956;151.076;2022-09-21T06:15:20;3.97;;;2.17;;
48647;SDS011;34437;-33.956;151.076;2022-09-21T06:17:42;3.75;;;1.85;;
48647;SDS011;34437;-33.956;151.076;2022-09-21T06:20:05;3.28;;;1.92;;
48647;SDS011;34437;-33.956;151.076;2022-09-21T06:22:28;4.78;;;2.17;;
48647;SDS011;34437;-33.956;151.076;2022-09-21T06:24:51;4.45;;;1.85;;
48647;SDS011;34437;-33.956;151.076;2022-09-21T06:27:14;4.55;;;1.95;;
48647;SDS011;34437;-33.956;151.076;2022-09-21T06:29:36;3.97;;;2.30;;
48647;SDS011;34437;-33.956;151.076;2022-09-21T06:32:00;4.55;;;1.50;;
48647;SDS011;34437;-33.956;151.076;2022-09-21T06:34:23;2.65;;;1.73;;
48647;SDS011;34437;-33.956;151.076;2022-09-21T06:36:46;2.75;;;1.50;;
48647;SDS011;34437;-33.956;151.076;2022-09-21T06:39:09;4.38;;;1.90;;
48647;SDS011;34437;-33.956;151.076;2022-09-21T06:41:32;3.80;;;1.70;;
48647;SDS011;34437;-33.956;151.076;2022-09-21T06:43:54;3.25;;;1.48;;
48647;SDS011;34437;-33.956;151.076;2022-09-21T06:46:17;2.83;;;1.70;;
48647;SDS011;34437;-33.956;151.076;2022-09-21T06:48:40;3.72;;;1.63;;
48647;SDS011;34437;-33.956;151.076;2022-09-21T06:51:03;4.25;;;2.08;;
48647;SDS011;34437;-33.956;151.076;2022-09-21T06:53:27;2.25;;;1.50;;
48647;SDS011;34437;-33.956;151.076;2022-09-21T06:55:51;3.50;;;1.58;;
48647;SDS011;34437;-33.956;151.076;2022-09-21T06:58:13;3.90;;;1.65;;
48647;SDS011;34437;-33.956;151.076;2022-09-21T07:00:36;3.15;;;1.77;;
48647;SDS011;34437;-33.956;151.076;2022-09-21T07:02:58;3.80;;;1.50;;
48647;SDS011;34437;-33.956;151.076;2022-09-21T07:05:21;4.47;;;1.60;;
48647;SDS011;34437;-33.956;151.076;2022-09-21T07:07:44;3.60;;;1.77;;
48647;SDS011;34437;-33.956;151.076;2022-09-21T07:10:07;2.65;;;1.80;;
48647;SDS011;34437;-33.956;151.076;2022-09-21T07:12:30;4.60;;;1.55;;
48647;SDS011;34437;-33.956;151.076;2022-09-21T07:14:54;2.47;;;1.30;;
48647;SDS011;34437;-33.956;151.076;2022-09-21T07:17:17;3.60;;;1.65;;
48647;SDS011;34437;-33.956;151.076;2022-09-21T07:19:39;3.35;;;1.60;;
48647;SDS011;34437;-33.956;151.076;2022-09-21T07:22:02;4.25;;;1.90;;
48647;SDS011;34437;-33.956;151.076;2022-09-21T07:24:25;3.67;;;1.48;;
48647;SDS011;34437;-33.956;151.076;2022-09-21T07:26:47;3.95;;;1.88;;
48647;SDS011;34437;-33.956;151.076;2022-09-21T07:29:10;3.58;;;1.42;;
48647;SDS011;34437;-33.956;151.076;2022-09-21T07:31:32;3.25;;;1.58;;
48647;SDS011;34437;-33.956;151.076;2022-09-21T07:33:56;2.55;;;1.10;;
48647;SDS011;34437;-33.956;151.076;2022-09-21T07:36:19;3.88;;;1.63;;
48647;SDS011;34437;-33.956;151.076;2022-09-21T07:38:42;3.22;;;1.40;;
48647;SDS011;34437;-33.956;151.076;2022-09-21T07:41:05;4.07;;;1.77;;
48647;SDS011;34437;-33.956;151.076;2022-09-21T07:43:28;3.05;;;1.55;;
48647;SDS011;34437;-33.956;151.076;2022-09-21T07:45:52;2.90;;;1.50;;
48647;SDS011;34437;-33.956;151.076;2022-09-21T07:48:18;1.80;;;1.17;;
48647;SDS011;34437;-33.956;151.076;2022-09-21T07:50:42;2.90;;;1.80;;
48647;SDS011;34437;-33.956;151.076;2022-09-21T07:53:05;3.05;;;1.50;;
48647;SDS011;34437;-33.956;151.076;2022-09-21T07:55:27;3.03;;;1.10;;
48647;SDS011;34437;-33.956;151.076;2022-09-21T07:57:50;2.10;;;1.30;;
48647;SDS011;34437;-33.956;151.076;2022-09-21T08:00:31;3.15;;;1.60;;
48647;SDS011;34437;-33.956;151.076;2022-09-21T08:02:55;2.45;;;1.20;;
48647;SDS011;34437;-33.956;151.076;2022-09-21T08:05:17;3.80;;;1.42;;
48647;SDS011;34437;-33.956;151.076;2022-09-21T08:07:40;6.97;;;1.58;;
48647;SDS011;34437;-33.956;151.076;2022-09-21T08:10:03;4.93;;;1.90;;
48647;SDS011;34437;-33.956;151.076;2022-09-21T08:12:26;5.78;;;2.30;;
48647;SDS011;34437;-33.956;151.076;2022-09-21T08:14:48;3.85;;;2.10;;
48647;SDS011;34437;-33.956;151.076;2022-09-21T08:17:12;6.20;;;2.15;;
48647;SDS011;34437;-33.956;151.076;2022-09-21T08:19:34;5.82;;;2.15;;
48647;SDS011;34437;-33.956;151.076;2022-09-21T08:21:57;4.70;;;2.38;;
48647;SDS011;34437;-33.956;151.076;2022-09-21T08:24:20;4.95;;;2.30;;
48647;SDS011;34437;-33.956;151.076;2022-09-21T08:26:42;5.75;;;1.98;;
48647;SDS011;34437;-33.956;151.076;2022-09-21T08:29:06;4.03;;;1.90;;
48647;SDS011;34437;-33.956;151.076;2022-09-21T08:31:29;5.63;;;2.47;;
48647;SDS011;34437;-33.956;151.076;2022-09-21T08:33:52;7.63;;;2.38;;
48647;SDS011;34437;-33.956;151.076;2022-09-21T08:36:17;5.68;;;2.22;;
48647;SDS011;34437;-33.956;151.076;2022-09-21T08:38:41;3.22;;;1.48;;
48647;SDS011;34437;-33.956;151.076;2022-09-21T08:43:44;3.78;;;1.73;;
48647;SDS011;34437;-33.956;151.076;2022-09-21T08:46:13;3.83;;;1.40;;
48647;SDS011;34437;-33.956;151.076;2022-09-21T08:48:39;3.05;;;1.63;;
48647;SDS011;34437;-33.956;151.076;2022-09-21T08:51:08;3.53;;;1.55;;
48647;SDS011;34437;-33.956;151.076;2022-09-21T08:53:45;3.13;;;1.50;;
48647;SDS011;34437;-33.956;151.076;2022-09-21T08:56:11;2.50;;;1.27;;
48647;SDS011;34437;-33.956;151.076;2022-09-21T08:58:35;2.88;;;1.38;;
48647;SDS011;34437;-33.956;151.076;2022-09-21T09:06:36;2.45;;;1.38;;
48647;SDS011;34437;-33.956;151.076;2022-09-21T09:09:20;2.90;;;1.30;;
48647;SDS011;34437;-33.956;151.076;2022-09-21T09:25:38;5.53;;;2.53;;
48647;SDS011;34437;-33.956;151.076;2022-09-21T09:28:46;5.65;;;2.30;;
48647;SDS011;34437;-33.956;151.076;2022-09-21T09:30:56;6.05;;;2.50;;
48647;SDS011;34437;-33.956;151.076;2022-09-21T09:33:29;8.15;;;2.10;;
48647;SDS011;34437;-33.956;151.076;2022-09-21T09:36:26;4.65;;;2.13;;
48647;SDS011;34437;-33.956;151.076;2022-09-21T09:39:11;4.95;;;2.17;;
48647;SDS011;34437;-33.956;151.076;2022-09-21T09:52:04;3.33;;;1.50;;
48647;SDS011;34437;-33.956;151.076;2022-09-21T09:54:32;2.83;;;1.48;;
48647;SDS011;34437;-33.956;151.076;2022-09-21T09:56:56;3.53;;;1.40;;
48647;SDS011;34437;-33.956;151.076;2022-09-21T09:59:25;3.20;;;1.20;;
48647;SDS011;34437;-33.956;151.076;2022-09-21T10:02:26;3.42;;;1.20;;
48647;SDS011;34437;-33.956;151.076;2022-09-21T10:05:02;4.23;;;1.50;;
48647;SDS011;34437;-33.956;151.076;2022-09-21T10:07:36;4.20;;;1.30;;
48647;SDS011;34437;-33.956;151.076;2022-09-21T10:12:53;5.70;;;1.70;;
48647;SDS011;34437;-33.956;151.076;2022-09-21T10:15:18;3.95;;;1.70;;
48647;SDS011;34437;-33.956;151.076;2022-09-21T10:17:44;4.40;;;1.90;;
48647;SDS011;34437;-33.956;151.076;2022-09-21T10:20:13;3.78;;;1.85;;
48647;SDS011;34437;-33.956;151.076;2022-09-21T10:22:41;6.30;;;2.10;;
48647;SDS011;34437;-33.956;151.076;2022-09-21T10:25:16;5.68;;;2.22;;
48647;SDS011;34437;-33.956;151.076;2022-09-21T10:27:41;5.78;;;2.42;;
48647;SDS011;34437;-33.956;151.076;2022-09-21T10:30:19;3.90;;;1.83;;
48647;SDS011;34437;-33.956;151.076;2022-09-21T10:32:53;5.22;;;1.98;;
48647;SDS011;34437;-33.956;151.076;2022-09-21T10:35:18;5.00;;;2.60;;
48647;SDS011;34437;-33.956;151.076;2022-09-21T10:37:45;7.75;;;2.35;;
48647;SDS011;34437;-33.956;151.076;2022-09-21T10:42:40;6.03;;;2.25;;
48647;SDS011;34437;-33.956;151.076;2022-09-21T10:45:06;5.32;;;2.22;;
48647;SDS011;34437;-33.956;151.076;2022-09-21T10:47:43;3.38;;;1.83;;
48647;SDS011;34437;-33.956;151.076;2022-09-21T10:52:47;3.75;;;1.65;;
48647;SDS011;34437;-33.956;151.076;2022-09-21T10:55:15;2.38;;;1.27;;
48647;SDS011;34437;-33.956;151.076;2022-09-21T10:57:40;4.47;;;1.67;;
48647;SDS011;34437;-33.956;151.076;2022-09-21T11:02:55;3.38;;;1.20;;
48647;SDS011;34437;-33.956;151.076;2022-09-21T11:05:22;4.68;;;1.90;;
48647;SDS011;34437;-33.956;151.076;2022-09-21T11:13:04;2.97;;;1.20;;
48647;SDS011;34437;-33.956;151.076;2022-09-21T11:15:40;2.20;;;1.33;;
48647;SDS011;34437;-33.956;151.076;2022-09-21T11:18:10;4.47;;;1.40;;
48647;SDS011;34437;-33.956;151.076;2022-09-21T11:20:57;3.53;;;1.70;;
48647;SDS011;34437;-33.956;151.076;2022-09-21T11:23:48;3.55;;;1.45;;
48647;SDS011;34437;-33.956;151.076;2022-09-21T11:26:35;3.53;;;1.40;;
48647;SDS011;34437;-33.956;151.076;2022-09-21T11:29:17;3.53;;;1.67;;
48647;SDS011;34437;-33.956;151.076;2022-09-21T11:34:33;2.47;;;1.30;;
48647;SDS011;34437;-33.956;151.076;2022-09-21T11:45:50;4.18;;;1.63;;
48647;SDS011;34437;-33.956;151.076;2022-09-21T12:07:15;2.97;;;1.30;;
48647;SDS011;34437;-33.956;151.076;2022-09-21T12:12:59;3.25;;;1.23;;
48647;SDS011;34437;-33.956;151.076;2022-09-21T12:15:40;2.72;;;1.25;;
48647;SDS011;34437;-33.956;151.076;2022-09-21T12:18:10;2.55;;;1.10;;
48647;SDS011;34437;-33.956;151.076;2022-09-21T12:34:26;3.15;;;1.50;;
48647;SDS011;34437;-33.956;151.076;2022-09-21T12:37:07;2.72;;;1.45;;
48647;SDS011;34437;-33.956;151.076;2022-09-21T12:39:46;2.63;;;1.40;;
48647;SDS011;34437;-33.956;151.076;2022-09-21T12:45:22;2.83;;;1.60;;
48647;SDS011;34437;-33.956;151.076;2022-09-21T12:50:49;1.75;;;1.38;;
48647;SDS011;34437;-33.956;151.076;2022-09-21T12:53:17;2.65;;;1.38;;
48647;SDS011;34437;-33.956;151.076;2022-09-21T13:09:14;2.20;;;1.60;;
48647;SDS011;34437;-33.956;151.076;2022-09-21T13:11:56;5.13;;;1.75;;
48647;SDS011;34437;-33.956;151.076;2022-09-21T13:14:29;4.78;;;1.70;;
48647;SDS011;34437;-33.956;151.076;2022-09-21T13:16:57;4.07;;;1.52;;
48647;SDS011;34437;-33.956;151.076;2022-09-21T13:19:23;3.30;;;1.50;;
48647;SDS011;34437;-33.956;151.076;2022-09-21T13:24:39;2.47;;;1.38;;
48647;SDS011;34437;-33.956;151.076;2022-09-21T13:27:04;2.30;;;1.45;;
48647;SDS011;34437;-33.956;151.076;2022-09-21T13:32:00;5.07;;;2.60;;
48647;SDS011;34437;-33.956;151.076;2022-09-21T13:34:36;3.60;;;2.30;;
48647;SDS011;34437;-33.956;151.076;2022-09-21T13:39:34;5.95;;;2.70;;
48647;SDS011;34437;-33.956;151.076;2022-09-21T13:41:57;6.88;;;3.25;;
48647;SDS011;34437;-33.956;151.076;2022-09-21T13:44:40;10.95;;;3.03;;
48647;SDS011;34437;-33.956;151.076;2022-09-21T13:47:06;13.48;;;2.95;;
48647;SDS011;34437;-33.956;151.076;2022-09-21T13:49:33;9.23;;;2.78;;
48647;SDS011;34437;-33.956;151.076;2022-09-21T13:54:56;5.05;;;2.60;;
48647;SDS011;34437;-33.956;151.076;2022-09-21T14:00:03;6.53;;;2.70;;
48647;SDS011;34437;-33.956;151.076;2022-09-21T14:02:34;7.95;;;2.55;;
48647;SDS011;34437;-33.956;151.076;2022-09-21T14:05:25;4.07;;;2.50;;
48647;SDS011;34437;-33.956;151.076;2022-09-21T14:08:19;3.55;;;2.20;;
48647;SDS011;34437;-33.956;151.076;2022-09-21T14:11:00;4.05;;;2.13;;
48647;SDS011;34437;-33.956;151.076;2022-09-21T14:21:39;3.95;;;1.88;;
48647;SDS011;34437;-33.956;151.076;2022-09-21T14:24:21;4.07;;;2.22;;
48647;SDS011;34437;-33.956;151.076;2022-09-21T14:27:43;5.93;;;2.80;;
48647;SDS011;34437;-33.956;151.076;2022-09-21T14:32:45;7.78;;;2.30;;
48647;SDS011;34437;-33.956;151.076;2022-09-21T14:35:21;5.28;;;2.10;;
48647;SDS011;34437;-33.956;151.076;2022-09-21T14:37:48;2.97;;;1.65;;
48647;SDS011;34437;-33.956;151.076;2022-09-21T14:40:17;4.50;;;2.45;;
48647;SDS011;34437;-33.956;151.076;2022-09-21T14:42:45;5.70;;;2.47;;
48647;SDS011;34437;-33.956;151.076;2022-09-21T14:45:13;5.70;;;2.40;;
48647;SDS011;34437;-33.956;151.076;2022-09-21T14:50:30;4.90;;;2.00;;
48647;SDS011;34437;-33.956;151.076;2022-09-21T14:53:28;4.20;;;2.13;;
48647;SDS011;34437;-33.956;151.076;2022-09-21T14:56:23;7.20;;;2.40;;
48647;SDS011;34437;-33.956;151.076;2022-09-21T15:18:01;5.32;;;2.05;;
48647;SDS011;34437;-33.956;151.076;2022-09-21T15:20:40;3.80;;;2.00;;
48647;SDS011;34437;-33.956;151.076;2022-09-21T15:23:14;3.38;;;2.03;;
48647;SDS011;34437;-33.956;151.076;2022-09-21T15:25:39;3.28;;;1.80;;
48647;SDS011;34437;-33.956;151.076;2022-09-21T15:28:02;4.40;;;1.93;;
48647;SDS011;34437;-33.956;151.076;2022-09-21T15:30:26;5.18;;;2.42;;
48647;SDS011;34437;-33.956;151.076;2022-09-21T15:32:53;5.70;;;2.10;;
48647;SDS011;34437;-33.956;151.076;2022-09-21T15:35:22;2.88;;;1.67;;
48647;SDS011;34437;-33.956;151.076;2022-09-21T15:37:49;4.55;;;2.00;;
48647;SDS011;34437;-33.956;151.076;2022-09-21T15:40:18;12.82;;;2.65;;
48647;SDS011;34437;-33.956;151.076;2022-09-21T15:45:33;4.03;;;1.77;;
48647;SDS011;34437;-33.956;151.076;2022-09-21T15:48:08;6.95;;;1.70;;
48647;SDS011;34437;-33.956;151.076;2022-09-21T15:50:34;2.58;;;1.92;;
48647;SDS011;34437;-33.956;151.076;2022-09-21T15:53:00;3.90;;;1.77;;
48647;SDS011;34437;-33.956;151.076;2022-09-21T15:55:26;2.70;;;1.90;;
48647;SDS011;34437;-33.956;151.076;2022-09-21T15:57:51;4.75;;;2.00;;
48647;SDS011;34437;-33.956;151.076;2022-09-21T16:00:20;2.53;;;1.73;;
48647;SDS011;34437;-33.956;151.076;2022-09-21T16:05:25;2.33;;;1.50;;
48647;SDS011;34437;-33.956;151.076;2022-09-21T16:07:47;2.42;;;1.70;;
48647;SDS011;34437;-33.956;151.076;2022-09-21T16:12:58;6.10;;;1.50;;
48647;SDS011;34437;-33.956;151.076;2022-09-21T16:15:43;8.13;;;2.17;;
48647;SDS011;34437;-33.956;151.076;2022-09-21T16:18:32;9.18;;;2.22;;
48647;SDS011;34437;-33.956;151.076;2022-09-21T16:21:07;5.65;;;2.00;;
48647;SDS011;34437;-33.956;151.076;2022-09-21T16:23:35;5.18;;;1.63;;
48647;SDS011;34437;-33.956;151.076;2022-09-21T16:30:52;3.05;;;1.50;;
48647;SDS011;34437;-33.956;151.076;2022-09-21T16:34:17;3.47;;;1.70;;
48647;SDS011;34437;-33.956;151.076;2022-09-21T16:36:32;6.88;;;1.70;;
48647;SDS011;34437;-33.956;151.076;2022-09-21T16:38:54;3.40;;;1.33;;
48647;SDS011;34437;-33.956;151.076;2022-09-21T16:41:16;4.88;;;1.50;;
48647;SDS011;34437;-33.956;151.076;2022-09-21T16:43:40;2.73;;;1.40;;
48647;SDS011;34437;-33.956;151.076;2022-09-21T16:46:05;1.60;;;1.02;;
48647;SDS011;34437;-33.956;151.076;2022-09-21T16:48:28;3.80;;;1.52;;
48647;SDS011;34437;-33.956;151.076;2022-09-21T16:50:51;2.75;;;1.27;;
48647;SDS011;34437;-33.956;151.076;2022-09-21T16:53:14;2.93;;;1.40;;
48647;SDS011;34437;-33.956;151.076;2022-09-21T16:55:36;2.97;;;0.90;;
48647;SDS011;34437;-33.956;151.076;2022-09-21T16:58:02;4.28;;;1.40;;
48647;SDS011;34437;-33.956;151.076;2022-09-21T17:00:25;3.13;;;1.40;;
48647;SDS011;34437;-33.956;151.076;2022-09-21T17:02:54;2.00;;;1.17;;
48647;SDS011;34437;-33.956;151.076;2022-09-21T17:05:16;2.03;;;1.27;;
48647;SDS011;34437;-33.956;151.076;2022-09-21T17:07:40;3.83;;;0.90;;
48647;SDS011;34437;-33.956;151.076;2022-09-21T17:10:11;1.98;;;1.00;;
48647;SDS011;34437;-33.956;151.076;2022-09-21T17:12:36;2.03;;;1.00;;
48647;SDS011;34437;-33.956;151.076;2022-09-21T17:14:59;3.17;;;1.13;;
48647;SDS011;34437;-33.956;151.076;2022-09-21T17:17:23;2.60;;;1.25;;
48647;SDS011;34437;-33.956;151.076;2022-09-21T17:19:46;2.57;;;1.20;;
48647;SDS011;34437;-33.956;151.076;2022-09-21T17:22:10;2.53;;;1.40;;
48647;SDS011;34437;-33.956;151.076;2022-09-21T17:24:45;0.93;;;0.75;;
48647;SDS011;34437;-33.956;151.076;2022-09-21T17:27:10;2.85;;;1.05;;
48647;SDS011;34437;-33.956;151.076;2022-09-21T17:29:34;2.55;;;1.08;;
48647;SDS011;34437;-33.956;151.076;2022-09-21T17:31:59;3.08;;;1.05;;
48647;SDS011;34437;-33.956;151.076;2022-09-21T17:34:27;3.20;;;1.00;;
48647;SDS011;34437;-33.956;151.076;2022-09-21T17:36:52;2.22;;;1.20;;
48647;SDS011;34437;-33.956;151.076;2022-09-21T17:39:15;8.60;;;1.23;;
48647;SDS011;34437;-33.956;151.076;2022-09-21T17:41:44;2.35;;;1.10;;
48647;SDS011;34437;-33.956;151.076;2022-09-21T17:48:59;2.53;;;0.93;;
48647;SDS011;34437;-33.956;151.076;2022-09-21T17:51:21;4.25;;;1.42;;
48647;SDS011;34437;-33.956;151.076;2022-09-21T17:54:19;9.35;;;1.35;;
48647;SDS011;34437;-33.956;151.076;2022-09-21T17:56:46;2.63;;;1.00;;
48647;SDS011;34437;-33.956;151.076;2022-09-21T17:59:31;4.25;;;1.35;;
48647;SDS011;34437;-33.956;151.076;2022-09-21T18:01:56;2.75;;;1.15;;
48647;SDS011;34437;-33.956;151.076;2022-09-21T18:04:20;5.03;;;1.33;;
48647;SDS011;34437;-33.956;151.076;2022-09-21T18:06:42;18.83;;;2.20;;
48647;SDS011;34437;-33.956;151.076;2022-09-21T18:09:08;3.80;;;1.35;;
48647;SDS011;34437;-33.956;151.076;2022-09-21T18:14:21;3.00;;;1.20;;